Flight Track Log - Related Links

Times and Time Zones

All times are in EDT time to prevent confusion due to time zone crossing. See the N70AG flight status page for this flight to view local times or setup timezone preferences in your user account.


Time Position Orientation Groundspeed Altitude Reporting Facility
EDT Latitude Longitude Course Direction KTS MPH feet Rate Location/Type
Wed 04:29:31 PM 37.8500 -121.1833 100° East 220 253 3,600  Level Northern Cal TRACON
Wed 04:30:37 PM 37.8333 -121.0667 100° East 284 327 7,400 3,048 Climbing Northern Cal TRACON
Wed 04:31:37 PM 37.8333 -120.9833 90° East 293 337 10,000 2,453 Climbing Northern Cal TRACON
Wed 04:33:16 PM 37.8150 -120.7981 97° East 346 398 13,900 2,646 Climbing Oakland Center
Wed 04:34:18 PM 37.8022 -120.6678 97° East 371 427 17,100 3,463 Climbing Oakland Center
Wed 04:35:19 PM 37.7861 -120.5019 97° East 393 452 21,000 2,878 Climbing Oakland Center
Wed 04:36:21 PM 37.7728 -120.3589 97° East 408 470 23,000 976 Climbing Oakland Center
Wed 04:37:22 PM 37.7578 -120.2133 97° East 417 480 23,000  Level Oakland Center
Wed 04:38:24 PM 37.7431 -120.0597 97° East 436 502 23,000  Level Oakland Center
Wed 04:39:25 PM 37.7267 -119.9058 98° East 442 509 23,000  Level Oakland Center
Wed 04:40:27 PM 37.7108 -119.7514 97° East 443 510 23,000 146 Level Oakland Center
Wed 04:41:28 PM 37.6953 -119.5958 97° East 447 514 23,300 1,561 Climbing Oakland Center
Wed 04:42:30 PM 37.6786 -119.4406 98° East 447 514 26,200 2,878 Climbing Oakland Center
Wed 04:43:31 PM 37.6600 -119.2600 97° East 434 499 29,200 2,341 Climbing Oakland Center
Wed 04:44:33 PM 37.6439 -119.1008 97° East 451 519 31,000 878 Climbing Oakland Center
Wed 04:45:34 PM 37.6253 -118.9381 98° East 466 536 31,000  Level Oakland Center
Wed 04:46:36 PM 37.6072 -118.7639 97° East 478 550 31,000  Level Oakland Center
Wed 04:47:37 PM 37.5867 -118.5969 99° East 482 555 31,000  Level Oakland Center
Wed 04:48:38 PM 37.5319 -118.4403 114° Southeast 485 558 31,000  Level Oakland Center
Wed 04:49:40 PM 37.4683 -118.2900 118° Southeast 489 563 31,000  Level Oakland Center
Wed 04:50:41 PM 37.4047 -118.1414 118° Southeast 486 559 31,000  Level Oakland Center
Wed 04:51:43 PM 37.3403 -117.9903 118° Southeast 488 562 31,000  Level Oakland Center
Wed 04:52:44 PM 37.2650 -117.8131 118° Southeast 484 557 31,000  Level Oakland Center
Wed 04:53:46 PM 37.2017 -117.6647 118° Southeast 484 557 31,000  Level Oakland Center
Wed 04:54:56 PM 37.1222 -117.4800 118° Southeast 493 567 31,000  Level Los Angeles Center
Wed 04:55:58 PM 37.0558 -117.3283 119° Southeast 497 572 31,000  Level Los Angeles Center
Wed 04:57:00 PM 36.9903 -117.1756 118° Southeast 499 574 31,000  Level Los Angeles Center
Wed 04:58:02 PM 36.9233 -117.0253 119° Southeast 497 572 31,000 -96 Level Los Angeles Center
Wed 04:59:05 PM 36.8575 -116.8739 118° Southeast 497 572 30,800 -816 Descending Los Angeles Center
Wed 05:00:07 PM 36.7867 -116.7247 121° Southeast 501 577 29,300 -1,065 Descending Los Angeles Center
Wed 05:01:09 PM 36.6772 -116.5708 132° Southeast 494 568 28,600 -823 Descending Los Angeles Center
Wed 05:02:11 PM 36.5878 -116.4428 131° Southeast 492 566 27,600 -1,355 Descending Los Angeles Center
Wed 05:03:13 PM 36.4981 -116.3156 131° Southeast 478 550 25,800 -2,115 Descending Los Angeles Center
Wed 05:04:13 PM 36.4169 -116.2056 132° Southeast 466 536 23,300 -2,710 Descending Los Angeles Center
Wed 05:04:15 PM 36.4108 -116.1931 121° Southeast 455 524 23,000 -2,813 Descending Los Angeles Center
Wed 05:05:17 PM 36.3303 -116.0811 132° Southeast 410 472 20,300 -2,494 Descending Los Angeles Center
Wed 05:05:32 PM 36.3133 -116.0600 135° Southeast 396 456 19,800 -2,190 Descending Los Angeles Center
Wed 05:06:20 PM 36.2608 -115.9842 131° Southeast 381 438 18,000 -2,291 Descending Los Angeles Center
Wed 05:06:27 PM 36.2497 -115.9711 137° Southeast 381 438 17,700 -2,323 Descending Los Angeles Center
Wed 05:07:22 PM 36.1950 -115.8761 125° Southeast 367 422 15,600 -2,262 Descending Los Angeles Center
Wed 05:07:28 PM 36.1911 -115.8675 119° Southeast 367 422 15,400 -2,226 Descending Los Angeles Center
Wed 05:08:24 PM 36.1547 -115.7619 113° Southeast 363 418 13,300 -2,361 Descending Los Angeles Center
Wed 05:08:29 PM 36.1514 -115.7500 109° East 358 412 13,000 -2,200 Descending Los Angeles Center
Wed 05:09:24 PM 36.1189 -115.6489 112° Southeast 355 409 11,100 -2,000 Descending Los Angeles Center
Wed 05:09:26 PM 36.1194 -115.6489 360° North 356 410 11,100 -94 Level Los Angeles Center
Wed 05:10:28 PM 36.0803 -115.5278 112° Southeast 353 406 11,000 -92 Descending Los Angeles Center
Wed 05:10:31 PM 36.0789 -115.5211 104° East 352 405 11,000  Level Los Angeles Center
Wed 05:11:30 PM 36.0444 -115.4178 112° Southeast 347 399 11,000  Level Los Angeles Center
Wed 05:11:31 PM 36.0422 -115.4106 111° Southeast 342 394 11,000 -581 Level Los Angeles Center
Wed 05:12:32 PM 36.0264 -115.3153 102° East 281 323 10,400 -934 Descending Los Angeles Center
Wed 05:13:33 PM 36.0189 -115.2136 95° East 286 329 9,100 -1,065 Descending Los Angeles Center
Wed 05:13:34 PM 36.0200 -115.2242 277° West 286 329 9,300 -716 Climbing Los Angeles Center
Wed 05:14:40 PM 36.0131 -115.1172 95° East 248 285 8,300 -816 Descending Los Angeles Center
Wed 05:15:39 PM 36.0136 -115.0406 89° East 234 269 7,600 -689 Descending Los Angeles Center
Wed 05:15:41 PM 36.0142 -115.0425 289° West 208 239 7,600 -1,258 Level Los Angeles Center
Wed 05:16:41 PM 36.0619 -115.0131 26° Northeast 202 232 6,300 -1,343 Descending Los Angeles Center
Wed 05:16:48 PM 36.0697 -115.0106 15° North 191 220 6,100 -1,258 Descending Los Angeles Center
Wed 05:17:43 PM 36.1003 -115.0511 313° West 195 224 5,000 -1,293 Descending Los Angeles Center
Wed 05:18:44 PM 36.1233 -115.1072 297° West 179 206 3,600 -1,258 Descending Los Angeles Center
Wed 05:18:45 PM 36.1236 -115.0986 88° East 190 219 3,700 -1,200 Climbing Los Angeles Center
Wed 05:19:39 PM 36.1133 -115.1506 256° West 157 181 2,500 -1,161 Descending Los Angeles Center
Wed 05:19:47 PM 36.1139 -115.1481 75° East 175 201 2,500  Level Los Angeles Center
Wed 05:21:00 PM 36.0801 -115.1523 270° West  Level Estimated
Wed 05:28:00 PM 36.0801 -115.1523 270° West  Level Estimated

Login

Don't have an account? Register now (free) for customized features, flight alerts, and more!